Terminal Aerodrome Forecast
Issued by NWS Charleston, WV

Home | Current Version | Previous Version | Text Only | Print | Product List | Glossary On
Versions: 1 2 3 4 5 6 7 8 9 10 11 12 13 14 15 16 17 18 19 20 21 22 23 24 25 26 27
271
FTUS41 KRLX 061018 AAC
TAFCRW
TAF AMD
KCRW 061018Z 0610/0706 14010G18KT P6SM OVC060
     FM061300 14007KT P6SM -RA OVC035
      TEMPO 0613/0615 3SM -RA
     FM061500 13007KT 4SM -RA OVC035
     FM062300 21005KT P6SM OVC015
     FM070300 27006KT P6SM BKN010=

USA.gov is the U.S. government's official web portal to all federal, state and local government web resources and services.